createdAt,value
2023-06-14T00:00:23.562Z,148976.00
2023-06-14T00:01:26.199Z,148955.31
2023-06-14T00:02:28.422Z,148961.41
2023-06-14T00:03:33.098Z,148958.97
2023-06-14T00:04:36.311Z,148960.19
2023-06-14T00:05:44.149Z,148967.47
2023-06-14T00:06:46.358Z,148937.09
2023-06-14T00:07:49.635Z,148934.66
2023-06-14T00:08:52.300Z,148932.22
2023-06-14T00:09:54.480Z,148917.69
2023-06-14T00:10:56.782Z,148915.25
2023-06-14T00:11:59.007Z,148926.16
2023-06-14T00:13:01.667Z,148924.97
2023-06-14T00:14:04.991Z,148907.97
2023-06-14T00:15:08.293Z,148905.50
2023-06-14T00:16:10.556Z,148895.81
2023-06-14T00:17:12.873Z,148898.22
2023-06-14T00:18:16.007Z,148886.09
2023-06-14T00:19:18.381Z,148886.09
2023-06-14T00:20:20.709Z,148869.06
2023-06-14T00:21:22.880Z,148867.88
2023-06-14T00:22:26.094Z,148886.09
2023-06-14T00:23:28.281Z,148873.97
2023-06-14T00:24:30.539Z,148884.88
2023-06-14T00:25:32.817Z,148876.41
2023-06-14T00:26:35.001Z,148869.06
2023-06-14T00:27:37.200Z,148864.22
2023-06-14T00:28:39.727Z,148855.75
2023-06-14T00:29:42.653Z,148852.09
2023-06-14T00:30:47.639Z,148844.81
2023-06-14T00:31:49.949Z,148830.19
2023-06-14T00:32:52.742Z,148822.91
2023-06-14T00:33:55.364Z,148818.06
2023-06-14T00:34:57.589Z,148812.00
2023-06-14T00:35:59.763Z,148807.09
2023-06-14T00:37:02.384Z,148810.78
2023-06-14T00:38:04.913Z,148810.78
2023-06-14T00:39:07.128Z,148799.81
2023-06-14T00:40:11.966Z,148801.03
2023-06-14T00:41:14.151Z,148803.44
2023-06-14T00:42:26.124Z,148841.19
2023-06-14T00:43:28.395Z,148793.75
2023-06-14T00:44:30.599Z,148803.44
2023-06-14T00:45:36.860Z,148796.19
2023-06-14T00:46:39.102Z,148788.91
2023-06-14T00:47:43.792Z,148801.03
2023-06-14T00:48:46.395Z,148771.88
2023-06-14T00:49:50.644Z,148779.19
2023-06-14T00:50:53.914Z,148764.59
2023-06-14T00:51:56.645Z,148753.69
2023-06-14T00:52:58.928Z,148762.19
2023-06-14T00:54:01.469Z,148746.41
2023-06-14T00:55:04.027Z,148754.91
2023-06-14T00:56:06.751Z,148746.41
2023-06-14T00:57:10.114Z,148752.47
2023-06-14T00:58:12.757Z,148747.63
2023-06-14T00:59:16.406Z,148733.03
2023-06-14T01:00:18.911Z,148741.53
2023-06-14T01:01:21.959Z,148728.19
2023-06-14T01:02:25.522Z,148713.66
2023-06-14T01:03:29.514Z,148733.03
2023-06-14T01:04:31.990Z,148723.34
2023-06-14T01:05:34.374Z,148725.75
2023-06-14T01:06:51.823Z,148757.34
2023-06-14T01:08:21.883Z,148739.09
2023-06-14T01:09:56.113Z,148728.19
2023-06-14T01:11:13.242Z,148722.13
2023-06-14T01:12:20.300Z,148712.44
2023-06-14T01:13:41.820Z,148722.13
2023-06-14T01:14:45.479Z,148696.63
2023-06-14T01:15:48.579Z,148680.88
2023-06-14T01:16:54.218Z,148703.91
2023-06-14T01:17:58.764Z,148691.78
2023-06-14T01:19:01.066Z,148680.88
2023-06-14T01:20:07.280Z,148694.19
2023-06-14T01:21:22.636Z,148712.44
2023-06-14T01:22:28.489Z,148684.50
2023-06-14T01:23:33.491Z,148667.50
2023-06-14T01:24:36.009Z,148660.22
2023-06-14T01:25:38.729Z,148649.31
2023-06-14T01:26:46.957Z,148660.22
2023-06-14T01:27:51.929Z,148669.91
2023-06-14T01:28:59.627Z,148668.69
2023-06-14T01:30:03.564Z,148648.09
2023-06-14T01:31:07.276Z,148659.00
2023-06-14T01:32:09.792Z,148635.94
2023-06-14T01:33:24.032Z,148669.91
2023-06-14T01:34:26.371Z,148640.78
2023-06-14T01:35:28.696Z,148629.88
2023-06-14T01:36:31.003Z,148626.22
2023-06-14T01:37:34.137Z,148615.31
2023-06-14T01:38:38.280Z,148620.19
2023-06-14T01:39:41.304Z,148612.91
2023-06-14T01:40:48.176Z,148633.50
2023-06-14T01:41:51.942Z,148611.66
2023-06-14T01:42:55.020Z,148603.16
2023-06-14T01:43:59.144Z,148598.31
2023-06-14T01:45:02.501Z,148594.69
2023-06-14T01:46:06.108Z,148599.53
2023-06-14T01:47:09.126Z,148586.19
2023-06-14T01:48:11.780Z,148584.97
2023-06-14T01:49:13.974Z,148583.78
2023-06-14T01:50:16.476Z,148575.25
2023-06-14T01:51:18.820Z,148591.03
2023-06-14T01:52:21.406Z,148592.25
2023-06-14T01:53:23.624Z,148593.47
2023-06-14T01:54:26.839Z,148572.81
2023-06-14T01:55:29.156Z,148578.88
2023-06-14T01:56:31.549Z,148576.44
2023-06-14T01:57:33.751Z,148571.59
2023-06-14T01:58:36.641Z,148572.81
2023-06-14T01:59:39.064Z,148583.78
2023-06-14T02:00:41.580Z,148584.97
2023-06-14T02:01:43.880Z,148582.56
2023-06-14T02:02:47.062Z,148572.81
2023-06-14T02:03:50.279Z,148572.81
2023-06-14T02:04:53.372Z,148572.81
2023-06-14T02:05:56.849Z,148566.75
2023-06-14T02:06:59.555Z,148567.97
2023-06-14T02:08:02.141Z,148589.84
2023-06-14T02:09:04.628Z,148580.13
2023-06-14T02:10:07.237Z,148575.25
2023-06-14T02:11:09.625Z,148567.97
2023-06-14T02:12:12.799Z,148563.13
2023-06-14T02:13:15.023Z,148559.50
2023-06-14T02:14:18.081Z,148581.34
2023-06-14T02:15:20.930Z,148578.88
2023-06-14T02:16:23.590Z,148566.75
2023-06-14T02:17:26.047Z,148558.28
2023-06-14T02:18:28.374Z,148553.38
2023-06-14T02:19:32.120Z,148538.78
2023-06-14T02:20:34.336Z,148548.53
2023-06-14T02:21:36.516Z,148575.25
2023-06-14T02:22:38.713Z,148572.81
2023-06-14T02:23:43.293Z,148570.41
2023-06-14T02:24:46.511Z,148575.25
2023-06-14T02:25:48.935Z,148567.97
2023-06-14T02:26:51.574Z,148569.19
2023-06-14T02:27:53.753Z,148564.34
2023-06-14T02:28:55.978Z,148548.53
2023-06-14T02:29:58.185Z,148546.06
2023-06-14T02:31:01.772Z,148542.44
2023-06-14T02:32:05.998Z,148538.78
2023-06-14T02:33:09.461Z,148538.78
2023-06-14T02:34:11.762Z,148542.44
2023-06-14T02:35:14.473Z,148543.66
2023-06-14T02:36:16.698Z,148550.97
2023-06-14T02:37:18.905Z,148550.97
2023-06-14T02:38:22.290Z,148541.22
2023-06-14T02:39:24.752Z,148547.31
2023-06-14T02:40:27.064Z,148550.97
2023-06-14T02:41:29.242Z,148563.13
2023-06-14T02:42:31.549Z,148554.59
2023-06-14T02:43:33.738Z,148546.06
2023-06-14T02:44:37.031Z,148558.28
2023-06-14T02:45:39.223Z,148550.97
2023-06-14T02:46:42.182Z,148548.53
2023-06-14T02:47:44.461Z,148547.31
2023-06-14T02:48:48.654Z,148537.59
2023-06-14T02:49:50.901Z,148548.53
2023-06-14T02:50:53.230Z,148542.44
2023-06-14T02:51:55.507Z,148492.56
2023-06-14T02:52:58.120Z,148537.59
2023-06-14T02:54:00.564Z,148538.78
2023-06-14T02:55:02.803Z,148537.59
2023-06-14T02:56:05.284Z,148548.53
2023-06-14T02:57:08.817Z,148500.06
2023-06-14T02:58:11.695Z,148555.81
2023-06-14T02:59:14.980Z,148546.06
2023-06-14T03:00:18.624Z,147125.81
2023-06-14T03:01:24.393Z,148259.69
2023-06-14T03:02:26.757Z,146862.34
2023-06-14T03:03:29.227Z,140804.13
2023-06-14T03:04:38.475Z,143530.97
2023-06-14T03:05:48.501Z,148558.28
2023-06-14T03:06:51.419Z,145955.78
2023-06-14T03:07:55.851Z,143337.91
2023-06-14T03:09:01.102Z,147017.59
2023-06-14T03:10:04.933Z,146203.81
2023-06-14T03:11:07.300Z,146884.16
2023-06-14T03:12:11.066Z,145735.78
2023-06-14T03:13:14.780Z,141802.84
2023-06-14T03:14:18.432Z,137754.53
2023-06-14T03:15:21.439Z,140781.16
2023-06-14T03:16:25.441Z,137083.97
2023-06-14T03:17:30.968Z,134734.38
2023-06-14T03:18:36.600Z,137755.66
2023-06-14T03:19:42.372Z,139098.19
2023-06-14T03:20:46.578Z,140105.59
2023-06-14T03:21:49.110Z,134064.22
2023-06-14T03:22:51.400Z,130357.69
2023-06-14T03:23:54.084Z,134400.38
2023-06-14T03:24:56.435Z,139442.66
2023-06-14T03:25:58.945Z,135064.00
2023-06-14T03:27:02.135Z,136406.81
2023-06-14T03:28:06.166Z,131712.94
2023-06-14T03:29:08.546Z,135400.22
2023-06-14T03:30:11.124Z,130699.88
2023-06-14T03:31:14.447Z,131371.66
2023-06-14T03:32:16.637Z,132054.31
2023-06-14T03:33:20.400Z,133732.44
2023-06-14T03:34:22.768Z,133398.53
2023-06-14T03:35:25.277Z,131390.97
2023-06-14T03:36:31.911Z,134083.94
2023-06-14T03:37:34.188Z,135433.34
2023-06-14T03:38:37.087Z,135099.25
2023-06-14T03:39:47.278Z,137119.75
2023-06-14T03:40:52.820Z,142521.84
2023-06-14T03:41:54.993Z,144469.63
2023-06-14T03:42:57.291Z,145091.19
2023-06-14T03:43:59.593Z,148070.75
2023-06-14T03:45:01.874Z,146549.63
2023-06-14T03:46:04.178Z,148576.44
2023-06-14T03:47:09.095Z,144077.88
2023-06-14T03:48:11.885Z,145664.38
2023-06-14T03:49:14.624Z,148597.09
2023-06-14T03:50:17.248Z,148594.69
2023-06-14T03:51:19.602Z,148595.88
2023-06-14T03:52:23.202Z,148588.63
2023-06-14T03:53:25.529Z,148597.09
2023-06-14T03:55:39.396Z,148586.19
2023-06-14T03:55:57.055Z,148599.53
2023-06-14T03:57:03.758Z,148604.38
2023-06-14T03:58:06.336Z,148608.00
2023-06-14T03:59:08.608Z,148600.75
2023-06-14T04:00:12.310Z,148610.44
2023-06-14T04:01:16.633Z,148608.00
2023-06-14T04:02:19.207Z,148611.66
2023-06-14T04:03:26.194Z,148640.78
2023-06-14T04:04:30.527Z,148632.28
2023-06-14T04:05:34.364Z,148620.19
2023-06-14T04:06:36.649Z,148633.50
2023-06-14T04:07:46.187Z,148640.78
2023-06-14T04:08:50.531Z,148644.41
2023-06-14T04:09:53.137Z,148645.66
2023-06-14T04:10:55.300Z,148652.94
2023-06-14T04:11:57.535Z,148654.16
2023-06-14T04:13:00.626Z,148645.66
2023-06-14T04:14:03.870Z,148678.44
2023-06-14T04:15:15.767Z,148674.75
2023-06-14T04:16:22.634Z,148689.34
2023-06-14T04:17:25.003Z,148685.72
2023-06-14T04:18:28.444Z,148693.00
2023-06-14T04:19:31.856Z,148703.91
2023-06-14T04:20:34.704Z,148689.34
2023-06-14T04:21:37.642Z,148706.31
2023-06-14T04:22:42.161Z,148703.91
2023-06-14T04:23:45.231Z,148725.75
2023-06-14T04:25:00.769Z,148733.03
2023-06-14T04:27:40.893Z,148736.69
2023-06-14T04:28:43.215Z,148739.09
2023-06-14T04:29:50.576Z,148739.09
2023-06-14T04:30:54.700Z,148750.06
2023-06-14T04:32:03.589Z,148767.03
2023-06-14T04:33:06.978Z,148763.41
2023-06-14T04:34:10.127Z,148759.75
2023-06-14T04:35:12.745Z,148779.19
2023-06-14T04:36:19.044Z,148782.84
2023-06-14T04:37:23.462Z,148771.88
2023-06-14T04:38:26.791Z,148781.63
2023-06-14T04:39:29.831Z,148791.31
2023-06-14T04:40:34.858Z,148839.94
2023-06-14T04:41:38.116Z,148791.31
2023-06-14T04:42:41.675Z,148822.91
2023-06-14T04:43:49.406Z,148801.03
2023-06-14T04:44:56.081Z,148813.19
2023-06-14T04:45:59.180Z,148813.19
2023-06-14T04:47:02.723Z,148821.69
2023-06-14T04:48:05.953Z,148838.72
2023-06-14T04:49:08.184Z,148856.94
2023-06-14T04:50:12.033Z,148856.94
2023-06-14T04:51:14.373Z,148863.00
2023-06-14T04:52:18.587Z,148841.19
2023-06-14T04:53:24.014Z,148837.50
2023-06-14T04:54:29.105Z,148839.94
2023-06-14T04:55:32.060Z,148863.00
2023-06-14T04:56:34.300Z,148887.31
2023-06-14T04:57:36.775Z,148892.16
2023-06-14T04:58:39.504Z,148898.22
2023-06-14T04:59:42.328Z,148900.66
2023-06-14T05:00:44.573Z,148917.69
2023-06-14T05:01:49.273Z,148924.97
2023-06-14T05:02:52.274Z,148916.47
2023-06-14T05:03:54.688Z,148927.38
2023-06-14T05:04:58.013Z,148924.97
2023-06-14T05:06:01.592Z,148945.63
2023-06-14T05:07:03.974Z,148917.69
2023-06-14T05:08:06.766Z,148938.31
2023-06-14T05:09:09.003Z,148955.31
2023-06-14T05:10:11.640Z,148958.97
2023-06-14T05:11:14.047Z,148991.75
2023-06-14T05:12:19.425Z,148992.97
2023-06-14T05:13:24.067Z,149017.28
2023-06-14T05:14:26.334Z,149024.56
2023-06-14T05:15:30.131Z,149001.47
2023-06-14T05:16:32.368Z,149031.84
2023-06-14T05:17:36.017Z,149014.88
2023-06-14T05:18:39.261Z,149025.78
2023-06-14T05:19:42.072Z,149034.28
2023-06-14T05:20:44.296Z,149053.75
2023-06-14T05:21:47.145Z,149039.19
2023-06-14T05:22:51.160Z,149051.31
2023-06-14T05:23:53.390Z,149046.44
2023-06-14T05:24:55.646Z,149044.03
2023-06-14T05:25:57.865Z,149058.59
2023-06-14T05:27:00.447Z,149050.09
2023-06-14T05:28:02.753Z,149035.50
2023-06-14T05:29:05.063Z,149024.56
2023-06-14T05:30:08.106Z,149053.75
2023-06-14T05:31:10.317Z,149053.75
2023-06-14T05:32:12.521Z,149075.63
2023-06-14T05:33:14.886Z,149087.75
2023-06-14T05:34:17.224Z,149054.94
2023-06-14T05:35:19.578Z,149056.16
2023-06-14T05:36:24.717Z,149056.16
2023-06-14T05:37:26.935Z,149091.44
2023-06-14T05:38:29.068Z,149114.53
2023-06-14T05:39:31.514Z,149136.44
2023-06-14T05:40:33.735Z,149153.44
2023-06-14T05:41:36.160Z,149170.47
2023-06-14T05:42:38.431Z,149180.19
2023-06-14T05:43:40.696Z,149185.03
2023-06-14T05:44:42.859Z,149172.88
2023-06-14T05:45:45.037Z,149177.75
2023-06-14T05:46:47.309Z,149163.13
2023-06-14T05:47:49.554Z,149165.56
2023-06-14T05:48:56.041Z,149197.16
2023-06-14T05:49:58.222Z,149183.81
2023-06-14T05:51:00.951Z,149185.03
2023-06-14T05:52:03.177Z,149226.34
2023-06-14T05:53:05.354Z,149248.25
2023-06-14T05:54:07.501Z,149256.75
2023-06-14T05:55:10.158Z,149257.94
2023-06-14T05:56:12.393Z,149234.88
2023-06-14T05:57:14.579Z,149265.22
2023-06-14T05:58:16.793Z,149271.34
2023-06-14T05:59:19.048Z,149305.41
2023-06-14T06:00:21.681Z,149321.19
2023-06-14T06:01:23.904Z,149288.34
2023-06-14T06:02:26.195Z,149299.28
2023-06-14T06:03:30.633Z,149332.09
2023-06-14T06:04:33.169Z,149351.63
2023-06-14T06:05:35.696Z,149379.59
2023-06-14T06:06:37.901Z,149341.91
2023-06-14T06:07:45.500Z,149312.69
2023-06-14T06:08:47.818Z,149317.53
2023-06-14T06:09:50.039Z,149301.75
2023-06-14T06:10:52.292Z,149345.56
2023-06-14T06:11:54.695Z,149350.41
2023-06-14T06:12:56.907Z,149345.56
2023-06-14T06:13:59.247Z,149369.88
2023-06-14T06:15:01.743Z,149385.66
2023-06-14T06:16:04.921Z,149413.66
2023-06-14T06:17:07.706Z,149418.50
2023-06-14T06:18:09.962Z,149433.13
2023-06-14T06:19:12.127Z,149465.97
2023-06-14T06:20:14.381Z,149457.41
2023-06-14T06:21:16.955Z,149481.75
2023-06-14T06:22:19.246Z,149498.81
2023-06-14T06:23:21.436Z,149512.19
2023-06-14T06:24:23.831Z,149541.38
2023-06-14T06:25:27.993Z,149570.63
2023-06-14T06:26:30.814Z,149581.56
2023-06-14T06:27:33.730Z,149605.91
2023-06-14T06:28:35.990Z,149611.97
2023-06-14T06:29:38.197Z,149636.34
2023-06-14T06:30:40.494Z,149649.69
2023-06-14T06:31:42.758Z,149630.25
2023-06-14T06:32:45.018Z,149649.69
2023-06-14T06:33:47.244Z,149653.34
2023-06-14T06:34:49.447Z,149676.47
2023-06-14T06:35:51.698Z,149641.19
2023-06-14T06:36:53.848Z,149619.28
2023-06-14T06:37:56.611Z,149659.41
2023-06-14T06:38:58.836Z,149683.78
2023-06-14T06:40:01.039Z,149754.34
2023-06-14T06:41:03.243Z,149918.75
2023-06-14T06:42:06.414Z,150012.59
2023-06-14T06:43:17.634Z,150231.94
2023-06-14T06:44:22.763Z,150427.03
2023-06-14T06:45:26.291Z,150497.72
2023-06-14T06:46:28.488Z,150658.78
2023-06-14T06:47:31.190Z,150751.53
2023-06-14T06:48:33.614Z,150906.50
2023-06-14T06:49:36.108Z,150967.56
2023-06-14T06:50:38.435Z,151056.69
2023-06-14T06:51:44.303Z,151010.34
2023-06-14T06:52:46.533Z,151017.66
2023-06-14T06:53:54.113Z,151095.81
2023-06-14T06:54:57.022Z,151090.94
2023-06-14T06:55:59.581Z,151308.41
2023-06-14T06:57:02.662Z,151288.84
2023-06-14T06:58:06.234Z,151198.38
2023-06-14T06:59:08.607Z,151304.75
2023-06-14T07:00:11.384Z,151301.03
2023-06-14T07:01:14.494Z,151310.84
2023-06-14T07:02:17.750Z,151057.94
2023-06-14T07:03:20.646Z,151105.56
2023-06-14T07:04:22.890Z,151117.81
2023-06-14T07:05:25.404Z,151330.34
2023-06-14T07:06:28.370Z,151406.13
2023-06-14T07:07:30.853Z,151406.13
2023-06-14T07:08:33.083Z,151384.13
2023-06-14T07:09:35.269Z,151503.94
2023-06-14T07:10:38.571Z,151556.47
2023-06-14T07:11:41.048Z,151464.81
2023-06-14T07:12:43.223Z,151694.66
2023-06-14T07:13:46.523Z,151682.44
2023-06-14T07:14:48.747Z,151649.44
2023-06-14T07:15:51.011Z,151436.72
2023-06-14T07:16:53.229Z,151445.28
2023-06-14T07:18:00.743Z,151513.72
2023-06-14T07:19:04.454Z,151588.28
2023-06-14T07:20:13.462Z,151624.97
2023-06-14T07:21:15.829Z,151375.59
2023-06-14T07:22:18.779Z,151558.91
2023-06-14T07:23:21.793Z,151684.88
2023-06-14T07:24:24.145Z,151897.78
2023-06-14T07:25:26.400Z,151945.44
2023-06-14T07:26:28.586Z,151923.41
2023-06-14T07:27:30.975Z,151565.00
2023-06-14T07:28:33.463Z,151650.66
2023-06-14T07:29:35.925Z,151694.66
2023-06-14T07:30:38.156Z,151839.00
2023-06-14T07:31:40.392Z,151752.16
2023-06-14T07:32:43.141Z,151853.66
2023-06-14T07:33:46.088Z,151951.56
2023-06-14T07:34:48.388Z,151836.56
2023-06-14T07:35:51.091Z,151957.66
2023-06-14T07:36:53.353Z,151917.31
2023-06-14T07:37:55.669Z,151985.81
2023-06-14T07:38:57.796Z,151924.66
2023-06-14T07:39:59.976Z,152220.84
2023-06-14T07:41:02.247Z,152348.19
2023-06-14T07:42:04.470Z,152104.56
2023-06-14T07:43:07.741Z,152141.25
2023-06-14T07:44:09.901Z,152016.44
2023-06-14T07:45:15.258Z,151998.06
2023-06-14T07:46:17.776Z,152171.91
2023-06-14T07:47:19.952Z,152192.69
2023-06-14T07:48:22.307Z,152152.25
2023-06-14T07:49:24.542Z,152148.59
2023-06-14T07:50:26.800Z,152140.03
2023-06-14T07:51:29.054Z,152201.28
2023-06-14T07:52:32.094Z,152222.06
2023-06-14T07:53:34.395Z,152338.41
2023-06-14T07:54:37.139Z,152392.31
2023-06-14T07:55:52.524Z,152394.75
2023-06-14T07:56:57.013Z,152462.13
2023-06-14T07:57:59.483Z,152395.97
2023-06-14T07:59:01.974Z,152162.13
2023-06-14T08:00:07.385Z,151792.50
2023-06-14T08:01:14.587Z,151613.97
2023-06-14T08:02:16.766Z,151735.06
2023-06-14T08:03:19.472Z,151677.56
2023-06-14T08:04:21.821Z,151710.56
2023-06-14T08:05:24.055Z,151774.19
2023-06-14T08:06:26.331Z,151911.22
2023-06-14T08:07:28.648Z,151848.78
2023-06-14T08:08:31.522Z,151854.88
2023-06-14T08:09:33.799Z,151783.97
2023-06-14T08:10:36.009Z,151932.03
2023-06-14T08:11:38.412Z,152102.13
2023-06-14T08:12:40.646Z,152039.72
2023-06-14T08:13:42.805Z,152049.47
2023-06-14T08:14:45.184Z,152059.25
2023-06-14T08:15:47.373Z,152099.66
2023-06-14T08:16:49.723Z,151988.25
2023-06-14T08:17:52.402Z,152120.44
2023-06-14T08:18:54.600Z,152081.28
2023-06-14T08:19:58.355Z,151927.09
2023-06-14T08:21:00.560Z,151755.84
2023-06-14T08:22:02.869Z,151732.63
2023-06-14T08:23:05.295Z,151595.63
2023-06-14T08:24:08.043Z,151875.75
2023-06-14T08:25:12.236Z,151895.28
2023-06-14T08:26:14.560Z,151934.47
2023-06-14T08:27:16.795Z,152007.84
2023-06-14T08:28:18.961Z,152056.81
2023-06-14T08:29:22.039Z,151998.06
2023-06-14T08:30:24.222Z,151987.03
2023-06-14T08:31:26.645Z,152099.66
2023-06-14T08:32:28.981Z,152105.78
2023-06-14T08:33:34.134Z,152301.69
2023-06-14T08:34:36.416Z,152382.47
2023-06-14T08:35:40.532Z,152625.06
2023-06-14T08:36:43.316Z,152413.09
2023-06-14T08:37:46.177Z,152547.81
2023-06-14T08:38:48.458Z,152529.47
2023-06-14T08:39:50.783Z,152441.31
2023-06-14T08:40:56.957Z,152495.19
2023-06-14T08:41:59.497Z,152475.59
2023-06-14T08:43:01.697Z,152482.91
2023-06-14T08:44:04.803Z,152516.00
2023-06-14T08:45:07.341Z,152528.25
2023-06-14T08:46:12.063Z,152514.75
2023-06-14T08:47:16.358Z,152429.03
2023-06-14T08:48:21.187Z,152473.13
2023-06-14T08:49:24.362Z,152615.22
2023-06-14T08:50:29.166Z,152376.38
2023-06-14T08:51:35.671Z,152357.97
2023-06-14T08:52:46.570Z,152211.06
2023-06-14T08:53:59.654Z,152137.59
2023-06-14T08:55:03.694Z,152419.19
2023-06-14T08:56:06.708Z,152340.88
2023-06-14T08:57:13.401Z,152260.03
2023-06-14T08:58:16.182Z,152219.63
2023-06-14T08:59:19.178Z,152132.72
2023-06-14T09:00:22.367Z,152218.41
2023-06-14T09:01:25.278Z,152023.78
2023-06-14T09:02:27.533Z,152154.69
2023-06-14T09:03:34.262Z,152204.94
2023-06-14T09:04:37.022Z,152267.38
2023-06-14T09:05:39.452Z,152160.91
2023-06-14T09:06:41.852Z,152441.31
2023-06-14T09:07:44.350Z,152478.03
2023-06-14T09:08:49.524Z,152576.06
2023-06-14T09:10:07.520Z,152603.00
2023-06-14T09:11:11.306Z,152590.78
2023-06-14T09:12:13.732Z,152703.44
2023-06-14T09:13:16.232Z,152424.09
2023-06-14T09:14:21.241Z,152498.88
2023-06-14T09:15:23.544Z,152307.81
2023-06-14T09:16:27.165Z,152186.56
2023-06-14T09:17:29.415Z,152350.66
2023-06-14T09:18:44.809Z,152431.47
2023-06-14T09:19:47.001Z,152323.69
2023-06-14T09:20:49.580Z,152335.97
2023-06-14T09:21:53.971Z,152500.09
2023-06-14T09:22:56.723Z,152196.41
2023-06-14T09:24:00.034Z,152223.28
2023-06-14T09:25:02.616Z,152198.84
2023-06-14T09:26:15.363Z,151924.66
2023-06-14T09:27:17.598Z,151870.84
2023-06-14T09:28:23.614Z,152032.38
2023-06-14T09:29:27.733Z,152077.63
2023-06-14T09:30:29.962Z,152005.41
2023-06-14T09:31:33.585Z,151968.72
2023-06-14T09:32:40.964Z,151890.41
2023-06-14T09:33:48.901Z,151787.63
2023-06-14T09:34:51.291Z,151765.66
2023-06-14T09:35:53.991Z,151743.63
2023-06-14T09:36:56.253Z,151776.63
2023-06-14T09:37:58.600Z,151990.69
2023-06-14T09:39:09.581Z,152022.56
2023-06-14T09:40:12.302Z,152018.88
2023-06-14T09:41:14.454Z,152029.94
2023-06-14T09:42:20.368Z,152015.19
2023-06-14T09:43:22.956Z,151991.94
2023-06-14T09:44:29.665Z,152291.81
2023-06-14T09:45:32.770Z,152244.09
2023-06-14T09:46:36.413Z,152313.91
2023-06-14T09:47:44.502Z,152468.25
2023-06-14T09:48:52.421Z,152512.31
2023-06-14T09:49:56.186Z,152522.09
2023-06-14T09:51:00.603Z,152605.44
2023-06-14T09:52:03.582Z,152443.75
2023-06-14T09:53:11.889Z,152333.53
2023-06-14T09:54:21.676Z,152267.38
2023-06-14T09:55:26.221Z,152163.34
2023-06-14T09:56:39.225Z,152225.72
2023-06-14T09:57:48.900Z,152427.81
2023-06-14T09:59:07.524Z,152544.16
2023-06-14T10:00:12.810Z,152441.31
2023-06-14T10:01:16.956Z,152625.06
2023-06-14T10:02:35.147Z,152666.72
2023-06-14T10:03:57.806Z,152707.16
2023-06-14T10:05:10.186Z,152592.00
2023-06-14T10:06:13.023Z,152482.91
2023-06-14T10:07:21.588Z,152565.00
2023-06-14T10:08:28.339Z,152502.53
2023-06-14T10:09:33.114Z,152561.31
2023-06-14T10:10:35.679Z,152633.63
2023-06-14T10:11:39.461Z,152756.19
2023-06-14T10:12:42.040Z,152678.94
2023-06-14T10:13:44.546Z,152713.28
2023-06-14T10:14:46.860Z,152828.47
2023-06-14T10:16:04.554Z,152839.53
2023-06-14T10:17:11.907Z,152617.69
2023-06-14T10:18:34.698Z,152698.56
2023-06-14T10:19:53.538Z,152720.63
2023-06-14T10:21:27.581Z,152926.56
2023-06-14T10:22:35.092Z,152985.41
2023-06-14T10:23:43.166Z,152830.91
2023-06-14T10:24:46.595Z,152807.63
2023-06-14T10:25:55.107Z,152913.06
2023-06-14T10:27:00.511Z,152659.38
2023-06-14T10:28:14.833Z,152765.97
2023-06-14T10:29:17.064Z,152823.59
2023-06-14T10:30:26.755Z,153068.78
2023-06-14T10:31:49.574Z,152848.09
2023-06-14T10:33:11.284Z,153024.66
2023-06-14T10:34:24.388Z,152881.19
2023-06-14T10:35:27.377Z,152914.28
2023-06-14T10:36:32.434Z,152964.53
2023-06-14T10:37:34.733Z,153111.72
2023-06-14T10:38:38.377Z,153066.34
2023-06-14T10:39:49.074Z,153032.00
2023-06-14T10:40:56.929Z,152994.03
2023-06-14T10:42:02.096Z,152790.50
2023-06-14T10:43:24.401Z,152925.34
2023-06-14T10:44:26.660Z,152690.00
2023-06-14T10:45:28.835Z,152615.22
2023-06-14T10:46:31.087Z,152785.56
2023-06-14T10:47:36.159Z,152881.19
2023-06-14T10:48:43.002Z,153137.47
2023-06-14T10:49:47.171Z,152745.13
2023-06-14T10:50:50.730Z,152620.13
2023-06-14T10:51:53.998Z,152528.25
2023-06-14T10:52:56.288Z,152671.59
2023-06-14T10:54:00.463Z,152615.22
2023-06-14T10:55:12.883Z,152436.38
2023-06-14T10:56:29.700Z,152511.09
2023-06-14T10:57:48.543Z,152504.97
2023-06-14T10:58:53.262Z,152780.66
2023-06-14T10:59:56.040Z,152914.28
2023-06-14T11:00:58.470Z,152911.81
2023-06-14T11:02:28.529Z,153039.34
2023-06-14T11:03:30.862Z,152904.47
2023-06-14T11:04:52.990Z,152905.72
2023-06-14T11:05:57.121Z,153106.81
2023-06-14T11:07:37.792Z,153079.78
2023-06-14T11:09:09.263Z,152757.41
2023-06-14T11:10:42.515Z,152750.03
2023-06-14T11:11:45.230Z,152931.47
2023-06-14T11:12:49.935Z,153049.16
2023-06-14T11:13:55.446Z,152965.81
2023-06-14T11:14:57.642Z,153061.44
2023-06-14T11:16:00.805Z,153059.00
2023-06-14T11:17:03.361Z,152914.28
2023-06-14T11:18:08.171Z,152924.13
2023-06-14T11:19:11.321Z,152995.25
2023-06-14T11:20:18.624Z,153070.00
2023-06-14T11:21:23.063Z,153049.16
2023-06-14T11:22:25.251Z,152933.91
2023-06-14T11:23:27.447Z,153057.75
2023-06-14T11:24:29.962Z,152951.03
2023-06-14T11:25:32.168Z,152811.28
2023-06-14T11:26:35.882Z,152826.03
2023-06-14T11:27:38.294Z,152644.63
2023-06-14T11:28:41.972Z,152536.81
2023-06-14T11:29:51.499Z,152555.16
2023-06-14T11:31:04.199Z,152421.63
2023-06-14T11:32:13.334Z,152460.91
2023-06-14T11:34:22.692Z,152459.69
2023-06-14T11:35:26.300Z,152636.06
2023-06-14T11:36:32.853Z,152866.50
2023-06-14T11:37:35.236Z,152729.22
2023-06-14T11:38:38.432Z,152661.81
2023-06-14T11:39:45.419Z,152643.41
2023-06-14T11:40:47.647Z,152478.03
2023-06-14T11:41:49.922Z,152470.69
2023-06-14T11:42:59.660Z,152612.78
2023-06-14T11:44:03.863Z,152671.59
2023-06-14T11:45:09.816Z,152710.84
2023-06-14T11:46:23.191Z,152667.94
2023-06-14T11:47:25.519Z,152553.94
2023-06-14T11:48:41.544Z,152762.31
2023-06-14T11:49:44.820Z,152817.41
2023-06-14T11:50:51.378Z,152818.63
2023-06-14T11:51:54.288Z,152323.69
2023-06-14T11:53:07.862Z,152167.03
2023-06-14T11:54:10.304Z,152174.34
2023-06-14T11:55:13.252Z,152098.44
2023-06-14T11:56:17.820Z,152148.59
2023-06-14T11:57:21.182Z,152289.38
2023-06-14T11:58:23.350Z,152274.72
2023-06-14T11:59:26.222Z,152550.28
2023-06-14T12:00:28.769Z,152775.78
2023-06-14T12:01:32.885Z,152741.47
2023-06-14T12:02:35.491Z,152882.41
2023-06-14T12:03:38.864Z,152957.19
2023-06-14T12:04:44.790Z,152774.53
2023-06-14T12:05:47.246Z,152571.13
2023-06-14T12:06:50.379Z,152364.13
2023-06-14T12:08:00.989Z,152203.72
2023-06-14T12:09:11.963Z,152178.03
2023-06-14T12:10:15.759Z,152375.13
2023-06-14T12:11:18.174Z,152326.19
2023-06-14T12:12:22.692Z,152397.19
2023-06-14T12:13:26.041Z,152578.50
2023-06-14T12:14:32.695Z,152752.47
2023-06-14T12:15:35.588Z,152710.84
2023-06-14T12:16:42.734Z,152761.09
2023-06-14T12:17:46.470Z,152392.31